createdAt,value
2023-05-23T00:01:10.329Z,96392.41
2023-05-23T00:03:37.494Z,96376.94
2023-05-23T00:06:06.844Z,96395.88
2023-05-23T00:08:37.477Z,96393.03
2023-05-23T00:11:04.029Z,96382.34
2023-05-23T00:13:33.519Z,96393.25
2023-05-23T00:16:00.360Z,96395.34
2023-05-23T00:18:27.920Z,96399.47
2023-05-23T00:20:54.466Z,96403.19
2023-05-23T00:23:22.542Z,96401.34
2023-05-23T00:25:52.839Z,96405.81
2023-05-23T00:28:20.306Z,96411.41
2023-05-23T00:30:47.104Z,96404.97
2023-05-23T00:33:14.619Z,96405.53
2023-05-23T00:35:42.939Z,96420.19
2023-05-23T00:38:11.685Z,96420.69
2023-05-23T00:40:38.423Z,96432.84
2023-05-23T00:43:05.053Z,96430.75
2023-05-23T00:45:31.845Z,96431.84
2023-05-23T00:48:00.380Z,96433.63
2023-05-23T00:50:32.124Z,96435.94
2023-05-23T00:53:00.573Z,96437.16
2023-05-23T00:55:28.579Z,96430.50
2023-05-23T00:57:57.243Z,96442.44
2023-05-23T01:00:25.474Z,96444.75
2023-05-23T01:02:53.729Z,96447.75
2023-05-23T01:05:22.659Z,96432.91
2023-05-23T01:07:50.495Z,96451.97
2023-05-23T01:10:20.584Z,96457.31
2023-05-23T01:13:21.111Z,96453.47
2023-05-23T01:15:53.841Z,96451.97
2023-05-23T01:18:46.619Z,96453.66
2023-05-23T01:21:17.387Z,96467.91
2023-05-23T01:24:11.736Z,96464.47
2023-05-23T01:27:05.509Z,96464.84
2023-05-23T01:29:56.687Z,96461.72
2023-05-23T01:32:25.480Z,96449.84
2023-05-23T01:34:54.521Z,96449.34
2023-05-23T01:37:21.222Z,96455.25
2023-05-23T01:39:48.203Z,96455.38
2023-05-23T01:42:15.061Z,96460.06
2023-05-23T01:44:42.047Z,96462.88
2023-05-23T01:47:09.776Z,96448.63
2023-05-23T01:49:37.833Z,96443.84
2023-05-23T01:52:05.794Z,96459.72
2023-05-23T01:54:35.417Z,96464.06
2023-05-23T01:57:03.003Z,96466.09
2023-05-23T01:59:29.620Z,96451.44
2023-05-23T02:01:56.271Z,96456.63
2023-05-23T02:04:22.896Z,96464.56
2023-05-23T02:06:49.436Z,96462.91
2023-05-23T02:09:16.670Z,96451.44
2023-05-23T02:11:50.415Z,96456.38
2023-05-23T02:14:18.659Z,96457.38
2023-05-23T02:16:45.832Z,96458.78
2023-05-23T02:19:12.601Z,96461.63
2023-05-23T02:21:39.198Z,96472.59
2023-05-23T02:24:05.939Z,96452.72
2023-05-23T02:26:33.477Z,96464.16
2023-05-23T02:29:00.020Z,96461.47
2023-05-23T02:31:29.081Z,96450.97
2023-05-23T02:33:55.761Z,96467.38
2023-05-23T02:36:22.731Z,96465.09
2023-05-23T02:38:50.686Z,96458.13
2023-05-23T02:41:18.251Z,96460.09
2023-05-23T02:43:47.713Z,96452.22
2023-05-23T02:46:14.315Z,96461.41
2023-05-23T02:48:40.985Z,96459.81
2023-05-23T02:51:07.632Z,96448.94
2023-05-23T02:53:34.202Z,96450.22
2023-05-23T02:56:00.742Z,96454.34
2023-05-23T02:58:30.420Z,96453.16
2023-05-23T03:00:57.168Z,96436.03
2023-05-23T03:03:23.880Z,96453.22
2023-05-23T03:05:51.674Z,96444.63
2023-05-23T03:08:18.285Z,96450.25
2023-05-23T03:10:44.937Z,96455.63
2023-05-23T03:13:11.685Z,96457.38
2023-05-23T03:15:38.484Z,96456.75
2023-05-23T03:18:05.301Z,96453.16
2023-05-23T03:20:32.008Z,96453.22
2023-05-23T03:22:59.855Z,96453.34
2023-05-23T03:25:29.995Z,96446.19
2023-05-23T03:27:58.361Z,96446.00
2023-05-23T03:30:25.119Z,96448.97
2023-05-23T03:32:51.844Z,96460.66
2023-05-23T03:35:18.572Z,96458.19
2023-05-23T03:37:52.174Z,96465.34
2023-05-23T03:40:18.824Z,96476.22
2023-05-23T03:42:48.927Z,96481.22
2023-05-23T03:45:16.054Z,96489.13
2023-05-23T03:47:43.351Z,96482.06
2023-05-23T03:54:11.011Z,96496.69
2023-05-23T03:56:37.630Z,96493.84
2023-05-23T03:59:04.315Z,96495.63
2023-05-23T04:01:31.019Z,96490.78
2023-05-23T04:03:58.234Z,96496.63
2023-05-23T04:06:25.027Z,96498.56
2023-05-23T04:08:51.823Z,96489.72
2023-05-23T04:11:18.460Z,96493.56
2023-05-23T04:13:50.238Z,96501.47
2023-05-23T04:16:17.341Z,96496.19
2023-05-23T04:18:47.527Z,96489.19
2023-05-23T04:21:20.252Z,96499.34
2023-05-23T04:23:47.244Z,96502.50
2023-05-23T04:26:13.782Z,96497.16
2023-05-23T04:28:40.708Z,96504.41
2023-05-23T04:31:08.188Z,96503.28
2023-05-23T04:33:34.839Z,96496.41
2023-05-23T04:36:02.688Z,96496.69
2023-05-23T04:38:29.307Z,96490.25
2023-05-23T04:40:55.918Z,96504.22
2023-05-23T04:43:26.733Z,96491.97
2023-05-23T04:45:57.825Z,96493.31
2023-05-23T04:48:24.916Z,96497.72
2023-05-23T04:50:52.721Z,96489.44
2023-05-23T04:53:19.339Z,96499.09
2023-05-23T04:55:46.419Z,96497.56
2023-05-23T04:58:13.416Z,96488.66
2023-05-23T05:00:40.372Z,96490.38
2023-05-23T05:03:10.000Z,96494.72
2023-05-23T05:05:36.707Z,96502.66
2023-05-23T05:08:03.233Z,96493.69
2023-05-23T05:10:29.870Z,96505.59
2023-05-23T05:12:56.515Z,96508.34
2023-05-23T05:15:23.728Z,96486.41
2023-05-23T05:17:50.324Z,96503.69
2023-05-23T05:20:17.460Z,96515.16
2023-05-23T05:22:46.192Z,96509.13
2023-05-23T05:25:12.857Z,96516.69
2023-05-23T05:27:39.991Z,96520.19
2023-05-23T05:30:08.088Z,96527.19
2023-05-23T05:32:35.085Z,96524.97
2023-05-23T05:35:02.474Z,96521.41
2023-05-23T05:37:29.843Z,96528.34
2023-05-23T05:39:56.590Z,96533.22
2023-05-23T05:42:23.404Z,96521.75
2023-05-23T05:44:50.336Z,96524.06
2023-05-23T05:47:17.025Z,96537.38
2023-05-23T05:49:43.552Z,96534.66
2023-05-23T05:52:10.589Z,96537.84
2023-05-23T05:54:37.718Z,96527.78
2023-05-23T05:57:04.602Z,96533.91
2023-05-23T05:59:32.670Z,96525.63
2023-05-23T06:01:59.687Z,96526.50
2023-05-23T06:04:26.316Z,96527.72
2023-05-23T06:06:52.978Z,96512.53
2023-05-23T06:09:19.521Z,96517.13
2023-05-23T06:11:56.109Z,96515.19
2023-05-23T06:14:22.654Z,96521.84
2023-05-23T06:16:49.718Z,96532.09
2023-05-23T06:19:16.340Z,96529.03
2023-05-23T06:21:43.048Z,96527.13
2023-05-23T06:24:10.700Z,96535.56
2023-05-23T06:26:37.826Z,96536.56
2023-05-23T06:29:04.597Z,96532.59
2023-05-23T06:31:31.521Z,96538.84
2023-05-23T06:33:58.104Z,96542.97
2023-05-23T06:36:24.945Z,96537.91
2023-05-23T06:38:51.586Z,96551.47
2023-05-23T06:41:24.117Z,96548.06
2023-05-23T06:43:50.853Z,96555.00
2023-05-23T06:46:17.533Z,96548.59
2023-05-23T06:48:44.152Z,96556.28
2023-05-23T06:51:11.572Z,96552.50
2023-05-23T06:53:38.208Z,96552.75
2023-05-23T06:56:05.149Z,96552.50
2023-05-23T06:58:31.676Z,96556.91
2023-05-23T07:00:58.411Z,96563.72
2023-05-23T07:03:24.946Z,96550.72
2023-05-23T07:05:51.852Z,96560.53
2023-05-23T07:08:18.703Z,96560.53
2023-05-23T07:10:45.479Z,96568.91
2023-05-23T07:13:13.287Z,96563.91
2023-05-23T07:15:40.180Z,96576.34
2023-05-23T07:18:06.892Z,96571.88
2023-05-23T07:20:34.408Z,96576.06
2023-05-23T07:23:01.085Z,96574.78
2023-05-23T07:25:28.068Z,96565.47
2023-05-23T07:27:54.925Z,96574.88
2023-05-23T07:30:22.803Z,96575.56
2023-05-23T07:32:49.630Z,96591.44
2023-05-23T07:35:19.023Z,96572.75
2023-05-23T07:37:46.750Z,96585.50
2023-05-23T07:40:14.592Z,96582.16
2023-05-23T07:42:41.309Z,96578.00
2023-05-23T07:45:08.262Z,96580.84
2023-05-23T07:47:35.888Z,96586.03
2023-05-23T07:50:02.529Z,96597.28
2023-05-23T07:52:30.708Z,96587.63
2023-05-23T07:54:57.399Z,96595.28
2023-05-23T07:57:24.589Z,96586.19
2023-05-23T07:59:51.766Z,96589.34
2023-05-23T08:02:18.688Z,96592.00
2023-05-23T08:04:46.003Z,96601.50
2023-05-23T08:07:12.975Z,96602.78
2023-05-23T08:09:40.801Z,96592.06
2023-05-23T08:12:09.494Z,96605.72
2023-05-23T08:14:49.951Z,96611.56
2023-05-23T08:17:18.599Z,96597.19
2023-05-23T08:19:45.231Z,96609.38
2023-05-23T08:22:11.861Z,96603.72
2023-05-23T08:24:38.984Z,96598.59
2023-05-23T08:27:08.146Z,96607.75
2023-05-23T08:29:35.455Z,96625.81
2023-05-23T08:32:02.232Z,96619.75
2023-05-23T08:34:29.038Z,96614.31
2023-05-23T08:36:55.585Z,96615.78
2023-05-23T08:39:22.113Z,96613.97
2023-05-23T08:41:49.877Z,96622.69
2023-05-23T08:44:25.727Z,96621.09
2023-05-23T08:46:53.699Z,96611.72
2023-05-23T08:49:22.791Z,96637.03
2023-05-23T08:51:52.414Z,96625.09
2023-05-23T08:54:19.139Z,96630.84
2023-05-23T08:56:48.892Z,96637.72
2023-05-23T08:59:16.621Z,96640.94
2023-05-23T09:01:46.236Z,96636.91
2023-05-23T09:04:12.870Z,96633.97
2023-05-23T09:06:39.529Z,96640.84
2023-05-23T09:09:06.361Z,96634.97
2023-05-23T09:11:36.367Z,96638.13
2023-05-23T09:14:08.279Z,96642.38
2023-05-23T09:16:35.229Z,96640.06
2023-05-23T09:19:11.292Z,96647.41
2023-05-23T09:21:37.868Z,96649.78
2023-05-23T09:24:05.809Z,96663.53
2023-05-23T09:26:32.403Z,96664.38
2023-05-23T09:28:59.644Z,96662.28
2023-05-23T09:31:29.004Z,96668.09
2023-05-23T09:33:55.672Z,96658.56
2023-05-23T09:36:30.666Z,96675.50
2023-05-23T09:38:57.468Z,96670.28
2023-05-23T09:41:31.504Z,96666.63
2023-05-23T09:43:58.162Z,96662.72
2023-05-23T09:46:30.444Z,96661.66
2023-05-23T09:48:57.119Z,96660.09
2023-05-23T09:51:24.303Z,96666.59
2023-05-23T09:53:53.358Z,96662.16
2023-05-23T09:56:20.265Z,96662.63
2023-05-23T09:58:48.846Z,96662.22
2023-05-23T10:01:16.351Z,96680.56
2023-05-23T10:03:50.162Z,96674.28
2023-05-23T10:06:28.935Z,96675.09
2023-05-23T10:09:08.278Z,96670.28
2023-05-23T10:11:34.799Z,96660.72
2023-05-23T10:14:05.322Z,96661.06
2023-05-23T10:16:44.217Z,96648.97
2023-05-23T10:19:19.388Z,96647.03
2023-05-23T10:22:01.618Z,96638.03
2023-05-23T10:24:29.139Z,96658.09
2023-05-23T10:26:56.399Z,96663.13
2023-05-23T10:29:24.901Z,96668.06
2023-05-23T10:31:56.327Z,96655.63
2023-05-23T10:34:42.149Z,96661.50
2023-05-23T10:37:16.555Z,96645.19
2023-05-23T10:40:06.216Z,96639.31
2023-05-23T10:42:43.284Z,96632.81
2023-05-23T10:45:27.949Z,96621.94
2023-05-23T10:47:54.839Z,96628.97
2023-05-23T10:50:37.162Z,96620.22
2023-05-23T10:53:05.699Z,96625.59
2023-05-23T10:55:36.884Z,96633.38
2023-05-23T10:58:13.052Z,96633.25
2023-05-23T11:00:40.012Z,96637.31
2023-05-23T11:03:09.119Z,96634.44
2023-05-23T11:05:38.670Z,96645.72
2023-05-23T11:08:10.153Z,96641.16
2023-05-23T11:11:05.172Z,96644.41
2023-05-23T11:13:55.468Z,96635.53
2023-05-23T11:16:47.152Z,96630.09
2023-05-23T11:19:20.032Z,96624.13
2023-05-23T11:21:50.050Z,96638.06
2023-05-23T11:24:17.678Z,96637.09
2023-05-23T11:27:04.289Z,96635.75
2023-05-23T11:29:31.000Z,96632.84
2023-05-23T11:31:58.235Z,96645.22
2023-05-23T11:34:28.084Z,96636.66
2023-05-23T11:36:55.836Z,96642.28
2023-05-23T11:39:23.616Z,96649.00
2023-05-23T11:42:03.428Z,96639.81
2023-05-23T11:44:30.646Z,96647.34
2023-05-23T11:47:07.805Z,96642.53
2023-05-23T11:49:38.632Z,96660.09
2023-05-23T11:52:06.704Z,96668.13
2023-05-23T11:54:33.630Z,96667.41
2023-05-23T11:57:00.571Z,96667.44
2023-05-23T11:59:28.513Z,96652.41
2023-05-23T12:01:55.975Z,96662.09
2023-05-23T12:04:22.842Z,96646.81
2023-05-23T12:06:49.927Z,96668.03
2023-05-23T12:09:17.065Z,96669.63
2023-05-23T12:11:45.243Z,96665.09
2023-05-23T12:14:16.609Z,96676.63
2023-05-23T12:16:52.746Z,96663.31
2023-05-23T12:19:19.659Z,96692.22
2023-05-23T12:21:47.986Z,96681.72
2023-05-23T12:24:16.107Z,96685.72
2023-05-23T12:26:54.923Z,96676.56
2023-05-23T12:29:28.138Z,96687.19
2023-05-23T12:31:54.797Z,96693.56
2023-05-23T12:34:21.900Z,96676.03
2023-05-23T12:36:55.134Z,96703.09
2023-05-23T12:39:30.784Z,96701.50
2023-05-23T12:42:08.656Z,96705.97
2023-05-23T12:44:35.902Z,96701.13
2023-05-23T12:47:05.781Z,96704.16
2023-05-23T12:49:32.503Z,96692.69
2023-05-23T12:51:59.103Z,96701.84
2023-05-23T12:54:26.056Z,96694.69
2023-05-23T12:56:52.619Z,96705.25
2023-05-23T12:59:19.830Z,96708.38
2023-05-23T13:01:47.219Z,96703.13
2023-05-23T13:04:13.768Z,96698.34
2023-05-23T13:06:46.793Z,96694.47
2023-05-23T13:09:13.384Z,96696.31
2023-05-23T13:11:41.508Z,96699.19
2023-05-23T13:14:08.067Z,96710.56
2023-05-23T13:16:40.901Z,96711.59
2023-05-23T13:19:07.876Z,96704.63
2023-05-23T13:21:34.456Z,96712.59
2023-05-23T13:24:00.998Z,96709.56
2023-05-23T13:26:27.611Z,96705.75
2023-05-23T13:28:55.203Z,96709.22
2023-05-23T13:31:22.068Z,96708.25
2023-05-23T13:33:48.611Z,96705.06
2023-05-23T13:36:15.178Z,96704.28
2023-05-23T13:38:41.728Z,96701.91
2023-05-23T13:41:09.356Z,96711.06
2023-05-23T13:43:36.497Z,96703.03
2023-05-23T13:46:03.233Z,96697.22
2023-05-23T13:48:29.812Z,96699.84
2023-05-23T13:50:56.618Z,96706.25
2023-05-23T13:53:24.488Z,96695.94
2023-05-23T13:55:50.998Z,96703.03
2023-05-23T13:58:17.630Z,96700.81
2023-05-23T14:00:44.440Z,96717.28
2023-05-23T14:03:12.192Z,96709.88
2023-05-23T14:05:38.986Z,96706.03
2023-05-23T14:08:05.720Z,96713.22
2023-05-23T14:10:33.526Z,96712.66
2023-05-23T14:13:00.791Z,96723.00
2023-05-23T14:15:28.227Z,96716.69
2023-05-23T14:18:00.861Z,96710.84
2023-05-23T14:20:27.702Z,96717.25
2023-05-23T14:22:54.299Z,96715.88
2023-05-23T14:25:20.915Z,96715.72
2023-05-23T14:27:47.534Z,96703.94
2023-05-23T14:30:14.183Z,96704.47
2023-05-23T14:32:50.219Z,96707.13
2023-05-23T14:35:16.898Z,96700.19
2023-05-23T14:37:46.993Z,96706.50
2023-05-23T14:40:14.334Z,96701.69
2023-05-23T14:42:44.083Z,96705.72
2023-05-23T14:45:11.326Z,96704.28
2023-05-23T14:47:39.391Z,96715.41
2023-05-23T14:50:06.828Z,96708.81
2023-05-23T14:52:33.469Z,96710.47
2023-05-23T14:55:01.385Z,96704.22
2023-05-23T14:57:28.033Z,96713.94
2023-05-23T14:59:54.555Z,96707.09
2023-05-23T15:02:23.154Z,96702.69
2023-05-23T15:04:49.768Z,96714.84
2023-05-23T15:07:18.253Z,96721.56
2023-05-23T15:09:45.897Z,96712.69
2023-05-23T15:12:12.846Z,96721.41
2023-05-23T15:14:39.346Z,96742.88
2023-05-23T15:17:07.962Z,96732.63
2023-05-23T15:19:37.316Z,96733.72
2023-05-23T15:22:04.813Z,96732.75
2023-05-23T15:24:31.852Z,96745.34
2023-05-23T15:27:11.739Z,96738.50
2023-05-23T15:29:46.316Z,96737.56
2023-05-23T15:32:13.168Z,96740.66
2023-05-23T15:34:39.935Z,96739.16
2023-05-23T15:37:06.431Z,96736.81
2023-05-23T15:39:33.109Z,96748.13
2023-05-23T15:42:02.044Z,96749.56
2023-05-23T15:44:28.742Z,96746.81
2023-05-23T15:46:55.927Z,96750.81
2023-05-23T15:49:26.489Z,96749.34
2023-05-23T15:51:54.338Z,96746.63
2023-05-23T15:54:21.092Z,96758.16
2023-05-23T15:56:47.650Z,96759.63
2023-05-23T15:59:14.181Z,96763.09
2023-05-23T16:02:00.063Z,96768.03
2023-05-23T16:04:26.720Z,96763.97
2023-05-23T16:06:54.275Z,96772.41
2023-05-23T16:09:20.861Z,96766.88
2023-05-23T16:11:54.454Z,96775.97
2023-05-23T16:14:20.992Z,96763.34
2023-05-23T16:16:54.086Z,96769.91
2023-05-23T16:19:20.669Z,96771.63
2023-05-23T16:21:47.367Z,96776.47
2023-05-23T16:24:14.231Z,96778.06
2023-05-23T16:26:42.832Z,96780.34
2023-05-23T16:29:11.420Z,96770.50
2023-05-23T16:31:38.672Z,96776.22
2023-05-23T16:34:12.488Z,96780.75
2023-05-23T16:36:39.138Z,96777.19
2023-05-23T16:39:06.778Z,96783.88
2023-05-23T16:41:34.443Z,96796.19
2023-05-23T16:44:24.237Z,96785.47
2023-05-23T16:47:04.373Z,96778.38
2023-05-23T16:49:31.137Z,96780.06
2023-05-23T16:51:57.751Z,96781.63
2023-05-23T16:54:24.509Z,96776.66
2023-05-23T16:56:51.109Z,96771.88
2023-05-23T16:59:18.068Z,96781.59
2023-05-23T17:01:44.678Z,96774.41
2023-05-23T17:04:11.391Z,96780.13
2023-05-23T17:06:38.077Z,96772.34
2023-05-23T17:09:05.344Z,96773.31
2023-05-23T17:11:32.357Z,96782.13
2023-05-23T17:13:58.839Z,96782.59
2023-05-23T17:16:33.787Z,96790.22
2023-05-23T17:19:04.365Z,96792.69
2023-05-23T17:21:31.470Z,96793.84
2023-05-23T17:23:57.980Z,96795.00
2023-05-23T17:26:24.593Z,96807.38
2023-05-23T17:28:52.328Z,96809.13
2023-05-23T17:31:19.198Z,96808.31
2023-05-23T17:33:46.509Z,96807.97
2023-05-23T17:36:14.185Z,96806.81
2023-05-23T17:38:41.311Z,96808.41
2023-05-23T17:41:07.867Z,96814.22
2023-05-23T17:43:34.393Z,96808.66
2023-05-23T17:46:00.977Z,96819.50
2023-05-23T17:51:12.043Z,96828.41
2023-05-23T17:53:41.291Z,96832.63
2023-05-23T17:56:11.589Z,96847.56
2023-05-23T17:58:39.737Z,96853.22
2023-05-23T18:01:07.925Z,96850.72
2023-05-23T18:03:34.519Z,96852.53
2023-05-23T18:06:02.065Z,96857.31
2023-05-23T18:08:35.764Z,96855.25
2023-05-23T18:11:02.573Z,96852.16
2023-05-23T18:13:30.868Z,96859.97
2023-05-23T18:15:58.534Z,96854.97
2023-05-23T18:18:25.122Z,96863.94
2023-05-23T18:20:52.748Z,96848.00
2023-05-23T18:23:19.549Z,96857.63
2023-05-23T18:25:46.339Z,96869.78
2023-05-23T18:28:18.188Z,96861.81
2023-05-23T18:30:45.004Z,96860.59
2023-05-23T18:33:11.887Z,96858.53
2023-05-23T18:35:38.440Z,96867.63
2023-05-23T18:38:05.158Z,96882.63
2023-05-23T18:40:36.241Z,96881.81
2023-05-23T18:43:02.940Z,96884.41
2023-05-23T18:45:29.501Z,96882.72
2023-05-23T18:47:56.389Z,96894.16
2023-05-23T18:50:23.876Z,96900.63
2023-05-23T18:52:50.759Z,96895.88
2023-05-23T18:55:17.424Z,96904.28
2023-05-23T18:57:44.991Z,96897.41
2023-05-23T19:00:12.075Z,96908.13
2023-05-23T19:02:44.441Z,96907.63
2023-05-23T19:05:12.742Z,96909.03
2023-05-23T19:07:39.669Z,96910.69
2023-05-23T19:10:06.837Z,96916.44
2023-05-23T19:12:33.611Z,96921.72
2023-05-23T19:15:00.662Z,96916.22
2023-05-23T19:17:27.196Z,96913.50
2023-05-23T19:19:55.913Z,96923.66
2023-05-23T19:22:23.014Z,96931.63
2023-05-23T19:24:49.582Z,96929.31
2023-05-23T19:27:16.719Z,96935.91
2023-05-23T19:29:43.281Z,96931.66
2023-05-23T19:32:09.954Z,96947.38
2023-05-23T19:34:36.800Z,96944.91
2023-05-23T19:37:08.644Z,96945.78
2023-05-23T19:39:45.983Z,96958.00
2023-05-23T19:42:14.640Z,96966.16
2023-05-23T19:44:41.640Z,96967.56
2023-05-23T19:47:12.538Z,96972.28
2023-05-23T19:49:39.038Z,96963.72
2023-05-23T19:52:14.352Z,96975.13
2023-05-23T19:54:41.072Z,96981.03
2023-05-23T19:57:07.793Z,96981.47
2023-05-23T19:59:34.496Z,96984.50
2023-05-23T20:02:01.327Z,96978.38
2023-05-23T20:04:28.474Z,96993.47
2023-05-23T20:06:56.120Z,96992.47
2023-05-23T20:09:23.192Z,96991.44
2023-05-23T20:11:49.803Z,97001.44
2023-05-23T20:14:16.479Z,97006.50
2023-05-23T20:16:43.125Z,96999.56
2023-05-23T20:19:10.367Z,97004.28
2023-05-23T20:21:39.010Z,97006.94
2023-05-23T20:24:05.682Z,97010.59
2023-05-23T20:26:32.234Z,97018.13
2023-05-23T20:28:59.909Z,97014.06
2023-05-23T20:31:26.487Z,97015.47
2023-05-23T20:33:53.226Z,97023.22
2023-05-23T20:36:21.041Z,97025.09
2023-05-23T20:38:47.965Z,97029.75
2023-05-23T20:41:14.733Z,97023.44
2023-05-23T20:43:41.420Z,97025.25
2023-05-23T20:46:11.725Z,97025.25
2023-05-23T20:48:39.093Z,97026.91
2023-05-23T20:51:07.486Z,97031.16
2023-05-23T20:53:34.959Z,97028.50
2023-05-23T20:56:02.637Z,97040.97
2023-05-23T20:58:31.698Z,97034.03
2023-05-23T21:00:58.844Z,97032.22
2023-05-23T21:03:25.692Z,97036.91
2023-05-23T21:05:52.411Z,97039.94
2023-05-23T21:08:19.091Z,97049.94
2023-05-23T21:10:49.855Z,97040.34
2023-05-23T21:13:18.187Z,97044.00
2023-05-23T21:15:44.872Z,97045.63
2023-05-23T21:18:12.551Z,97031.97
2023-05-23T21:20:39.099Z,97040.78
2023-05-23T21:23:05.687Z,97039.94
2023-05-23T21:25:32.240Z,97036.25
2023-05-23T21:27:58.766Z,97051.09
2023-05-23T21:30:39.119Z,97044.38
2023-05-23T21:33:06.439Z,97044.97
2023-05-23T21:35:33.012Z,97041.69
2023-05-23T21:37:59.580Z,97038.81
2023-05-23T21:40:27.061Z,97047.56
2023-05-23T21:42:53.677Z,97049.94
2023-05-23T21:45:20.385Z,97053.78
2023-05-23T21:47:48.086Z,97042.97
2023-05-23T21:50:14.729Z,97054.00
2023-05-23T21:52:41.265Z,97053.91
2023-05-23T21:55:07.967Z,97056.56
2023-05-23T21:57:34.558Z,97050.81
2023-05-23T22:00:01.128Z,97054.69
2023-05-23T22:02:27.814Z,97061.00
2023-05-23T22:04:54.488Z,97072.72
2023-05-23T22:07:25.229Z,97076.31
2023-05-23T22:09:53.462Z,97068.19
2023-05-23T22:12:20.493Z,97082.88
2023-05-23T22:14:47.335Z,97085.88
2023-05-23T22:17:14.331Z,97088.81
2023-05-23T22:19:41.772Z,97084.56
2023-05-23T22:22:09.807Z,97102.72
2023-05-23T22:24:36.656Z,97093.91
2023-05-23T22:27:04.266Z,97100.50
2023-05-23T22:29:31.043Z,97091.28
2023-05-23T22:31:57.719Z,97096.69
2023-05-23T22:34:24.546Z,97089.53
2023-05-23T22:36:52.140Z,97089.69
2023-05-23T22:39:24.770Z,97097.50
2023-05-23T22:41:51.361Z,97085.03
2023-05-23T22:44:17.971Z,97081.50
2023-05-23T22:46:44.615Z,97080.59
2023-05-23T22:49:22.354Z,97086.78
2023-05-23T22:51:48.963Z,97078.78
2023-05-23T22:54:15.762Z,97084.75
2023-05-23T22:56:48.430Z,97075.09
2023-05-23T22:59:14.994Z,97077.69
2023-05-23T23:01:41.675Z,97067.66
2023-05-23T23:04:08.241Z,97078.41
2023-05-23T23:06:35.632Z,97083.47
2023-05-23T23:09:02.231Z,97079.22
2023-05-23T23:11:28.823Z,97069.41
2023-05-23T23:13:55.412Z,97069.41
2023-05-23T23:16:22.101Z,97073.69
2023-05-23T23:18:49.099Z,97078.66
2023-05-23T23:21:15.826Z,97073.69
2023-05-23T23:23:42.521Z,97066.94
2023-05-23T23:26:09.142Z,97062.69
2023-05-23T23:28:35.782Z,97070.25
2023-05-23T23:31:02.475Z,97072.31
2023-05-23T23:33:29.123Z,97068.22
2023-05-23T23:35:55.873Z,97067.53
2023-05-23T23:38:22.415Z,97071.16
2023-05-23T23:40:49.153Z,97069.88
2023-05-23T23:43:15.771Z,97074.25
2023-05-23T23:45:42.395Z,97079.97
2023-05-23T23:48:09.130Z,97081.50
2023-05-23T23:50:35.798Z,97073.63
2023-05-23T23:53:02.407Z,97079.88
2023-05-23T23:55:29.061Z,97073.88
2023-05-23T23:57:55.715Z,97073.97
